createdAt,value
2019-02-25T00:00:19.727Z,99.99
2019-02-25T00:01:19.750Z,99.99
2019-02-25T00:02:19.797Z,99.99
2019-02-25T00:03:19.800Z,99.99
2019-02-25T00:04:19.847Z,99.99
2019-02-25T00:05:19.850Z,99.99
2019-02-25T00:06:19.876Z,99.99
2019-02-25T00:07:19.899Z,99.99
2019-02-25T00:08:19.973Z,99.99
2019-02-25T00:09:19.950Z,99.99
2019-02-25T00:10:19.976Z,99.99
2019-02-25T00:11:19.998Z,99.99
2019-02-25T00:12:20.025Z,99.99
2019-02-25T00:13:20.049Z,99.99
2019-02-25T00:14:20.091Z,99.99
2019-02-25T00:15:20.098Z,99.99
2019-02-25T00:16:20.122Z,99.99
2019-02-25T00:17:20.146Z,99.99
2019-02-25T00:18:20.175Z,99.99
2019-02-25T00:19:20.195Z,99.99
2019-02-25T00:20:20.222Z,99.99
2019-02-25T00:21:20.245Z,99.99
2019-02-25T00:22:20.272Z,99.99
2019-02-25T00:23:20.294Z,99.99
2019-02-25T00:24:20.319Z,99.99
2019-02-25T00:25:20.342Z,99.99
2019-02-25T00:26:20.368Z,99.99
2019-02-25T00:27:20.394Z,99.99
2019-02-25T00:28:20.421Z,99.99
2019-02-25T00:29:20.445Z,99.99
2019-02-25T00:30:20.472Z,99.99
2019-02-25T00:31:20.490Z,99.99
2019-02-25T00:32:20.515Z,99.99
2019-02-25T00:33:20.541Z,99.99
2019-02-25T00:34:20.565Z,99.99
2019-02-25T00:35:20.589Z,99.99
2019-02-25T00:36:20.613Z,99.99
2019-02-25T00:37:20.639Z,99.99
2019-02-25T00:38:20.663Z,99.99
2019-02-25T00:39:20.686Z,99.99
2019-02-25T00:40:20.711Z,99.99
2019-02-25T00:41:20.738Z,99.99
2019-02-25T00:42:20.761Z,99.99
2019-02-25T00:43:20.785Z,99.99
2019-02-25T00:44:20.812Z,99.99
2019-02-25T00:45:20.833Z,99.99
2019-02-25T00:46:20.906Z,99.99
2019-02-25T00:47:20.883Z,99.99
2019-02-25T00:48:20.908Z,99.99
2019-02-25T00:49:20.932Z,99.99
2019-02-25T00:50:20.959Z,99.99
2019-02-25T00:51:20.981Z,99.99
2019-02-25T00:52:21.005Z,99.99
2019-02-25T00:53:21.032Z,99.99
2019-02-25T00:54:21.055Z,99.99
2019-02-25T00:55:21.079Z,99.99
2019-02-25T00:56:21.104Z,99.99
2019-02-25T00:57:21.132Z,99.99
2019-02-25T00:58:21.156Z,99.99
2019-02-25T00:59:21.180Z,99.99
2019-02-25T01:00:21.201Z,99.99
2019-02-25T01:01:21.230Z,99.99
2019-02-25T01:02:21.251Z,99.99
2019-02-25T01:03:21.276Z,99.99
2019-02-25T01:04:21.299Z,99.99
2019-02-25T01:05:21.323Z,99.99
2019-02-25T01:06:21.348Z,99.99
2019-02-25T01:07:21.373Z,99.99
2019-02-25T01:08:21.397Z,99.99
2019-02-25T01:09:21.425Z,99.99
2019-02-25T01:10:21.447Z,99.99
2019-02-25T01:11:21.470Z,99.99
2019-02-25T01:12:21.495Z,99.99
2019-02-25T01:13:21.520Z,99.99
2019-02-25T01:14:21.544Z,99.99
2019-02-25T01:15:21.569Z,99.99
2019-02-25T01:16:21.593Z,99.99
2019-02-25T01:17:21.618Z,99.99
2019-02-25T01:18:21.642Z,99.99
2019-02-25T01:19:21.666Z,99.99
2019-02-25T01:20:21.693Z,99.99
2019-02-25T01:21:21.715Z,99.99
2019-02-25T01:22:21.741Z,99.99
2019-02-25T01:23:21.814Z,99.99
2019-02-25T01:24:21.788Z,99.99
2019-02-25T01:25:21.813Z,99.99
2019-02-25T01:26:21.844Z,99.99
2019-02-25T01:27:21.862Z,99.99
2019-02-25T01:28:21.886Z,99.99
2019-02-25T01:29:21.915Z,99.99
2019-02-25T01:30:21.938Z,99.99
2019-02-25T01:31:21.960Z,99.99
2019-02-25T01:32:21.986Z,99.99
2019-02-25T01:33:22.009Z,99.99
2019-02-25T01:34:22.035Z,99.99
2019-02-25T01:35:22.056Z,99.99
2019-02-25T01:36:22.082Z,99.99
2019-02-25T01:37:22.105Z,99.99
2019-02-25T01:38:22.130Z,99.99
2019-02-25T01:39:22.153Z,99.99
2019-02-25T01:40:22.178Z,99.99
2019-02-25T01:41:22.203Z,99.99
2019-02-25T01:42:22.229Z,99.99
2019-02-25T01:43:22.252Z,99.99
2019-02-25T01:44:22.275Z,99.99
2019-02-25T01:45:22.301Z,99.99
2019-02-25T01:46:22.324Z,99.99
2019-02-25T01:47:22.349Z,99.99
2019-02-25T01:48:22.373Z,99.99
2019-02-25T01:49:22.399Z,99.99
2019-02-25T01:50:22.422Z,99.99
2019-02-25T01:51:22.447Z,99.99
2019-02-25T01:52:22.473Z,99.99
2019-02-25T01:53:22.498Z,99.99
2019-02-25T01:54:22.521Z,99.99
2019-02-25T01:55:22.545Z,99.99
2019-02-25T01:56:22.570Z,99.99
2019-02-25T01:57:22.592Z,99.99
2019-02-25T01:58:22.618Z,99.99
2019-02-25T01:59:22.640Z,99.99
2019-02-25T02:00:22.665Z,99.99
2019-02-25T02:01:22.691Z,99.99
2019-02-25T02:02:22.714Z,99.99
2019-02-25T02:03:22.737Z,99.99
2019-02-25T02:04:22.763Z,99.99
2019-02-25T02:05:24.425Z,99.99
2019-02-25T02:06:22.812Z,99.99
2019-02-25T02:07:22.837Z,99.99
2019-02-25T02:08:22.860Z,99.99
2019-02-25T02:09:22.887Z,99.99
2019-02-25T02:10:22.910Z,99.99
2019-02-25T02:11:22.932Z,99.99
2019-02-25T02:12:22.957Z,99.99
2019-02-25T02:13:22.982Z,99.99
2019-02-25T02:14:23.009Z,99.99
2019-02-25T02:15:23.032Z,99.99
2019-02-25T02:16:23.054Z,99.99
2019-02-25T02:17:23.079Z,99.99
2019-02-25T02:18:23.107Z,99.99
2019-02-25T02:19:23.127Z,99.99
2019-02-25T02:20:23.153Z,99.99
2019-02-25T02:21:23.177Z,99.99
2019-02-25T02:22:23.202Z,99.99
2019-02-25T02:23:23.224Z,99.99
2019-02-25T02:24:23.249Z,99.99
2019-02-25T02:25:23.274Z,99.99
2019-02-25T02:26:23.303Z,99.99
2019-02-25T02:27:23.324Z,99.99
2019-02-25T02:28:23.346Z,99.99
2019-02-25T02:29:23.372Z,99.99
2019-02-25T02:30:23.394Z,99.99
2019-02-25T02:31:23.424Z,99.99
2019-02-25T02:32:23.443Z,99.99
2019-02-25T02:33:23.469Z,99.99
2019-02-25T02:34:23.493Z,99.99
2019-02-25T02:35:23.515Z,99.99
2019-02-25T02:36:23.543Z,99.99
2019-02-25T02:37:23.565Z,99.99
2019-02-25T02:38:23.589Z,99.99
2019-02-25T02:39:23.614Z,99.99
2019-02-25T02:40:23.636Z,99.99
2019-02-25T02:41:23.661Z,99.99
2019-02-25T02:42:23.686Z,99.99
2019-02-25T02:43:23.711Z,99.99
2019-02-25T02:44:23.733Z,99.99
2019-02-25T02:45:23.758Z,99.99
2019-02-25T02:46:23.787Z,99.99
2019-02-25T02:47:23.810Z,99.99
2019-02-25T02:48:23.829Z,99.99
2019-02-25T02:49:23.862Z,99.99
2019-02-25T02:50:23.879Z,99.99
2019-02-25T02:51:23.902Z,99.99
2019-02-25T02:52:23.925Z,99.99
2019-02-25T02:53:23.950Z,99.99
2019-02-25T02:54:23.987Z,99.99
2019-02-25T02:55:24.002Z,99.99
2019-02-25T02:56:24.028Z,99.99
2019-02-25T02:57:24.048Z,99.99
2019-02-25T02:58:24.072Z,99.99
2019-02-25T02:59:24.094Z,99.99
2019-02-25T03:00:24.119Z,99.99
2019-02-25T03:01:24.143Z,99.99
2019-02-25T03:02:24.169Z,99.99
2019-02-25T03:03:24.191Z,99.99
2019-02-25T03:04:24.216Z,99.99
2019-02-25T03:05:24.242Z,99.99
2019-02-25T03:06:24.267Z,99.99
2019-02-25T03:07:24.291Z,99.99
2019-02-25T03:08:24.312Z,99.99
2019-02-25T03:09:24.336Z,99.99
2019-02-25T03:10:24.362Z,99.99
2019-02-25T03:11:24.385Z,99.99
2019-02-25T03:12:24.408Z,99.99
2019-02-25T03:13:31.191Z,99.99
2019-02-25T03:14:24.458Z,99.99
2019-02-25T03:15:24.481Z,99.99
2019-02-25T03:16:24.514Z,99.99
2019-02-25T03:17:24.529Z,99.99
2019-02-25T03:18:24.553Z,99.99
2019-02-25T03:19:24.589Z,99.99
2019-02-25T03:20:24.602Z,99.99
2019-02-25T03:21:24.629Z,99.99
2019-02-25T03:22:24.650Z,99.99
2019-02-25T03:23:24.673Z,99.99
2019-02-25T03:24:24.698Z,99.99
2019-02-25T03:25:24.723Z,99.99
2019-02-25T03:26:24.747Z,99.99
2019-02-25T03:27:27.776Z,99.99
2019-02-25T03:28:24.796Z,99.99
2019-02-25T03:29:24.819Z,99.99
2019-02-25T03:30:24.861Z,99.99
2019-02-25T03:31:24.868Z,99.99
2019-02-25T03:32:24.892Z,99.99
2019-02-25T03:33:24.919Z,99.99
2019-02-25T03:34:24.943Z,99.99
2019-02-25T03:35:24.964Z,99.99
2019-02-25T03:36:24.989Z,99.99
2019-02-25T03:37:25.012Z,99.99
2019-02-25T03:38:25.035Z,99.99
2019-02-25T03:39:25.058Z,99.99
2019-02-25T03:40:25.085Z,99.99
2019-02-25T03:41:25.109Z,99.99
2019-02-25T03:42:25.185Z,99.99
2019-02-25T03:43:25.171Z,99.99
2019-02-25T03:44:25.179Z,99.99
2019-02-25T03:45:25.204Z,99.99
2019-02-25T03:46:25.228Z,99.99
2019-02-25T03:47:25.251Z,99.99
2019-02-25T03:48:25.277Z,99.99
2019-02-25T03:49:25.300Z,99.99
2019-02-25T03:50:25.325Z,99.99
2019-02-25T03:51:25.353Z,99.99
2019-02-25T03:52:25.374Z,99.99
2019-02-25T03:53:25.396Z,99.99
2019-02-25T03:54:25.424Z,99.99
2019-02-25T03:55:25.443Z,99.99
2019-02-25T03:56:25.469Z,99.99
2019-02-25T03:57:25.494Z,99.99
2019-02-25T03:58:25.516Z,99.99
2019-02-25T03:59:25.587Z,99.99
2019-02-25T04:00:25.564Z,99.99
2019-02-25T04:01:25.592Z,99.99
2019-02-25T04:02:25.614Z,99.99
2019-02-25T04:03:25.638Z,99.99
2019-02-25T04:04:25.659Z,99.99
2019-02-25T04:05:25.684Z,99.99
2019-02-25T04:06:25.708Z,99.99
2019-02-25T04:07:25.731Z,99.99
2019-02-25T04:08:25.755Z,99.99
2019-02-25T04:09:25.782Z,99.99
2019-02-25T04:10:25.804Z,99.99
2019-02-25T04:11:25.825Z,99.99
2019-02-25T04:12:25.849Z,99.99
2019-02-25T04:13:25.874Z,99.99
2019-02-25T04:14:25.898Z,99.99
2019-02-25T04:15:25.928Z,99.99
2019-02-25T04:16:25.945Z,99.99
2019-02-25T04:17:25.969Z,99.99
2019-02-25T04:18:25.996Z,99.99
2019-02-25T04:19:26.018Z,99.99
2019-02-25T04:20:26.041Z,99.99
2019-02-25T04:21:26.065Z,99.99
2019-02-25T04:22:26.088Z,99.99
2019-02-25T04:23:26.112Z,99.99
2019-02-25T04:24:26.136Z,99.99
2019-02-25T04:25:26.167Z,99.99
2019-02-25T04:26:26.209Z,99.99
2019-02-25T04:27:26.206Z,99.99
2019-02-25T04:28:26.231Z,99.99
2019-02-25T04:29:26.254Z,99.99
2019-02-25T04:30:26.279Z,99.99
2019-02-25T04:31:26.302Z,99.99
2019-02-25T04:32:26.326Z,99.99
2019-02-25T04:33:26.349Z,99.99
2019-02-25T04:34:26.374Z,99.99
2019-02-25T04:35:28.851Z,99.99
2019-02-25T04:36:26.421Z,99.99
2019-02-25T04:37:26.443Z,99.99
2019-02-25T04:38:26.467Z,99.99
2019-02-25T04:39:26.490Z,99.99
2019-02-25T04:40:26.518Z,99.99
2019-02-25T04:41:26.540Z,99.99
2019-02-25T04:42:26.564Z,99.99
2019-02-25T04:43:26.586Z,99.99
2019-02-25T04:44:26.611Z,99.99
2019-02-25T04:45:26.641Z,99.99
2019-02-25T04:46:26.660Z,99.99
2019-02-25T04:47:26.682Z,99.99
2019-02-25T04:48:26.705Z,99.99
2019-02-25T04:49:26.729Z,99.99
2019-02-25T04:50:26.755Z,99.99
2019-02-25T04:51:26.781Z,99.99
2019-02-25T04:52:26.815Z,99.99
2019-02-25T04:53:26.823Z,99.99
2019-02-25T04:54:26.848Z,99.99
2019-02-25T04:55:26.873Z,99.99
2019-02-25T04:56:26.897Z,99.99
2019-02-25T04:57:26.920Z,99.99
2019-02-25T04:58:26.943Z,99.99
2019-02-25T04:59:26.965Z,99.99
2019-02-25T05:00:27.045Z,99.99
2019-02-25T05:01:27.016Z,99.99
2019-02-25T05:02:27.038Z,99.99
2019-02-25T05:03:27.069Z,99.99
2019-02-25T05:04:27.085Z,99.99
2019-02-25T05:05:27.110Z,99.99
2019-02-25T05:06:27.140Z,99.99
2019-02-25T05:07:27.159Z,99.99
2019-02-25T05:08:27.181Z,99.99
2019-02-25T05:09:27.207Z,99.99
2019-02-25T05:10:27.229Z,99.99
2019-02-25T05:11:27.258Z,99.99
2019-02-25T05:12:27.278Z,99.99
2019-02-25T05:13:27.300Z,99.99
2019-02-25T05:14:27.325Z,99.99
2019-02-25T05:15:27.360Z,99.99
2019-02-25T05:16:27.371Z,99.99
2019-02-25T05:17:27.406Z,99.99
2019-02-25T05:18:27.421Z,99.99
2019-02-25T05:19:27.442Z,99.99
2019-02-25T05:20:27.471Z,99.99
2019-02-25T05:21:27.493Z,99.99
2019-02-25T05:22:27.516Z,99.99
2019-02-25T05:23:27.542Z,99.99
2019-02-25T05:24:27.564Z,99.99
2019-02-25T05:25:27.589Z,99.99
2019-02-25T05:26:27.613Z,99.99
2019-02-25T05:27:27.638Z,99.99
2019-02-25T05:28:27.660Z,99.99
2019-02-25T05:29:27.687Z,99.99
2019-02-25T05:30:27.709Z,99.99
2019-02-25T05:31:27.731Z,99.99
2019-02-25T05:32:27.757Z,99.99
2019-02-25T05:33:27.780Z,99.99
2019-02-25T05:34:27.806Z,99.99
2019-02-25T05:35:27.828Z,99.99
2019-02-25T05:36:27.853Z,99.99
2019-02-25T05:37:27.888Z,99.99
2019-02-25T05:38:27.901Z,99.99
2019-02-25T05:39:27.925Z,99.99
2019-02-25T05:40:27.948Z,99.99
2019-02-25T05:41:27.973Z,99.99
2019-02-25T05:42:27.997Z,99.99
2019-02-25T05:43:28.019Z,99.99
2019-02-25T05:44:28.050Z,99.99
2019-02-25T05:45:28.069Z,99.99
2019-02-25T05:46:28.092Z,99.99
2019-02-25T05:47:28.116Z,99.99
2019-02-25T05:48:28.140Z,99.99
2019-02-25T05:49:28.168Z,99.99
2019-02-25T05:50:28.191Z,99.99
2019-02-25T05:51:28.225Z,99.99
2019-02-25T05:52:28.238Z,99.99
2019-02-25T05:53:28.260Z,99.99
2019-02-25T05:54:28.287Z,99.99
2019-02-25T05:55:28.308Z,99.99
2019-02-25T05:56:28.366Z,99.99
2019-02-25T05:57:28.359Z,99.99
2019-02-25T05:58:28.381Z,99.99
2019-02-25T05:59:28.405Z,99.99
2019-02-25T06:00:28.448Z,99.99
2019-02-25T06:01:28.452Z,99.99
2019-02-25T06:02:28.498Z,99.99
2019-02-25T06:03:28.500Z,99.99
2019-02-25T06:04:28.524Z,99.99
2019-02-25T06:05:28.548Z,99.99
2019-02-25T06:06:28.579Z,99.99
2019-02-25T06:07:28.599Z,99.99
2019-02-25T06:08:28.620Z,99.99
2019-02-25T06:09:28.646Z,99.99
2019-02-25T06:10:28.668Z,99.99
2019-02-25T06:11:28.693Z,99.99
2019-02-25T06:12:28.716Z,99.99
2019-02-25T06:13:28.740Z,99.99
2019-02-25T06:14:28.765Z,99.99
2019-02-25T06:15:28.792Z,99.99
2019-02-25T06:16:28.812Z,99.99
2019-02-25T06:17:28.843Z,99.99
2019-02-25T06:18:28.862Z,99.99
2019-02-25T06:19:28.884Z,99.99
2019-02-25T06:20:28.908Z,99.99
2019-02-25T06:21:28.932Z,99.99
2019-02-25T06:22:28.959Z,99.99
2019-02-25T06:23:28.982Z,99.99
2019-02-25T06:24:29.005Z,99.99
2019-02-25T06:25:29.048Z,99.99
2019-02-25T06:26:29.053Z,99.99
2019-02-25T06:27:30.984Z,99.99
2019-02-25T06:28:29.100Z,99.99
2019-02-25T06:29:29.127Z,99.99
2019-02-25T06:30:29.187Z,99.99
2019-02-25T06:31:29.172Z,99.99
2019-02-25T06:32:29.196Z,99.99
2019-02-25T06:33:29.220Z,99.99
2019-02-25T06:34:29.245Z,99.99
2019-02-25T06:35:29.273Z,99.99
2019-02-25T06:36:29.294Z,99.99
2019-02-25T06:37:29.318Z,99.99
2019-02-25T06:38:29.345Z,99.99
2019-02-25T06:39:29.368Z,99.99
2019-02-25T06:40:29.388Z,99.99
2019-02-25T06:41:29.413Z,99.99
2019-02-25T06:42:29.437Z,99.99
2019-02-25T06:43:29.460Z,99.99
2019-02-25T06:44:29.485Z,99.99
2019-02-25T06:45:31.087Z,99.99
2019-02-25T06:46:29.535Z,99.99
2019-02-25T06:47:29.558Z,99.99
2019-02-25T06:48:29.582Z,99.80
2019-02-25T06:49:29.607Z,99.66
2019-02-25T06:50:29.630Z,99.38
2019-02-25T06:51:29.675Z,99.19
2019-02-25T06:52:29.683Z,98.53
2019-02-25T06:53:29.704Z,99.01
2019-02-25T06:54:29.728Z,98.72
2019-02-25T06:55:29.754Z,97.68
2019-02-25T06:56:29.775Z,96.73
2019-02-25T06:57:29.832Z,96.35
2019-02-25T06:58:29.824Z,96.92
2019-02-25T06:59:29.852Z,96.83
2019-02-25T07:00:29.873Z,96.54
2019-02-25T07:01:29.898Z,96.88
2019-02-25T07:02:29.925Z,95.93
2019-02-25T07:03:29.945Z,95.17
2019-02-25T07:04:29.971Z,95.36
2019-02-25T07:05:29.999Z,95.45
2019-02-25T07:06:30.022Z,94.70
2019-02-25T07:07:30.046Z,94.98
2019-02-25T07:08:30.069Z,95.07
2019-02-25T07:09:30.094Z,95.55
2019-02-25T07:10:30.119Z,94.98
2019-02-25T07:11:30.165Z,94.98
2019-02-25T07:12:30.170Z,95.26
2019-02-25T07:13:30.193Z,94.13
2019-02-25T07:14:30.220Z,93.99
2019-02-25T07:15:30.243Z,93.89
2019-02-25T07:16:30.270Z,93.70
2019-02-25T07:17:30.293Z,93.04
2019-02-25T07:18:30.319Z,92.85
2019-02-25T07:19:30.343Z,93.13
2019-02-25T07:20:30.368Z,92.94
2019-02-25T07:21:30.394Z,93.04
2019-02-25T07:22:30.421Z,93.80
2019-02-25T07:23:30.448Z,91.24
2019-02-25T07:24:30.472Z,89.63
2019-02-25T07:25:30.498Z,88.11
2019-02-25T07:26:30.524Z,86.98
2019-02-25T07:27:30.547Z,86.50
2019-02-25T07:28:30.573Z,85.74
2019-02-25T07:29:30.600Z,85.46
2019-02-25T07:30:30.625Z,85.13
2019-02-25T07:31:30.652Z,83.80
2019-02-25T07:32:30.677Z,83.98
2019-02-25T07:33:30.705Z,83.23
2019-02-25T07:34:30.881Z,83.42
2019-02-25T07:35:30.756Z,83.32
2019-02-25T07:36:30.782Z,82.56
2019-02-25T07:37:30.808Z,81.05
2019-02-25T07:38:39.138Z,81.14
2019-02-25T07:39:30.862Z,81.14
2019-02-25T07:40:30.886Z,81.09
2019-02-25T07:41:30.914Z,80.80
2019-02-25T07:42:30.940Z,80.04
2019-02-25T07:43:30.964Z,79.38
2019-02-25T07:44:30.993Z,79.10
2019-02-25T07:45:31.025Z,79.19
2019-02-25T07:46:31.096Z,79.28
2019-02-25T07:47:31.071Z,78.81
2019-02-25T07:48:31.098Z,78.62
2019-02-25T07:49:31.125Z,78.34
2019-02-25T07:50:31.153Z,78.24
2019-02-25T07:51:31.178Z,77.24
2019-02-25T07:52:31.241Z,76.39
2019-02-25T07:53:31.232Z,76.06
2019-02-25T07:54:31.509Z,75.87
2019-02-25T07:55:31.288Z,76.39
2019-02-25T07:56:31.313Z,75.81
2019-02-25T07:57:31.340Z,75.05
2019-02-25T07:58:31.367Z,74.20
2019-02-25T07:59:31.394Z,74.11
2019-02-25T08:00:31.420Z,73.82
2019-02-25T08:01:31.449Z,73.82
2019-02-25T08:02:31.477Z,73.82
2019-02-25T08:03:31.504Z,73.35
2019-02-25T08:04:31.531Z,71.64
2019-02-25T08:05:31.558Z,72.02
2019-02-25T08:06:31.587Z,71.11
2019-02-25T08:07:31.613Z,70.92
2019-02-25T08:08:31.641Z,70.82
2019-02-25T08:09:31.669Z,69.96
2019-02-25T08:10:31.699Z,68.86
2019-02-25T08:11:31.727Z,66.74
2019-02-25T08:12:31.752Z,64.78
2019-02-25T08:13:31.781Z,61.54
2019-02-25T08:14:31.810Z,58.87
2019-02-25T08:15:31.837Z,56.81
2019-02-25T08:16:31.865Z,55.73
2019-02-25T08:17:31.897Z,55.16
2019-02-25T08:18:31.926Z,55.09
2019-02-25T08:19:31.951Z,53.41
2019-02-25T08:20:31.979Z,52.38
2019-02-25T08:21:32.007Z,50.85
2019-02-25T08:22:32.037Z,49.99
2019-02-25T08:23:32.065Z,49.73
2019-02-25T08:24:32.098Z,49.64
2019-02-25T08:25:32.126Z,48.39
2019-02-25T08:26:32.153Z,48.88
2019-02-25T08:27:32.181Z,47.92
2019-02-25T08:28:32.681Z,47.58
2019-02-25T08:29:32.239Z,46.22
2019-02-25T08:30:32.270Z,45.65
2019-02-25T08:31:32.300Z,45.92
2019-02-25T08:32:32.329Z,46.70
2019-02-25T08:33:32.361Z,46.13
2019-02-25T08:34:32.389Z,46.22
2019-02-25T08:35:32.419Z,45.46
2019-02-25T08:36:32.450Z,45.67
2019-02-25T08:37:32.483Z,44.91
2019-02-25T08:38:32.513Z,45.63
2019-02-25T08:39:32.544Z,46.01
2019-02-25T08:40:32.571Z,46.22
2019-02-25T08:41:32.627Z,45.92
2019-02-25T08:42:32.634Z,46.68
2019-02-25T08:43:32.664Z,46.87
2019-02-25T08:44:32.696Z,46.32
2019-02-25T08:45:32.727Z,46.08
2019-02-25T08:46:32.759Z,47.34
2019-02-25T08:47:32.793Z,46.61
2019-02-25T08:48:32.820Z,46.94
2019-02-25T08:49:32.853Z,46.77
2019-02-25T08:50:32.885Z,46.87
2019-02-25T08:51:32.915Z,46.84
2019-02-25T08:52:32.947Z,47.44
2019-02-25T08:53:32.980Z,47.56
2019-02-25T08:54:33.012Z,47.37
2019-02-25T08:55:33.043Z,47.01
2019-02-25T08:56:33.077Z,45.96
2019-02-25T08:57:33.109Z,45.12
2019-02-25T08:58:33.140Z,44.91
2019-02-25T08:59:33.224Z,44.93
2019-02-25T09:00:33.207Z,43.86
2019-02-25T09:01:33.238Z,44.26
2019-02-25T09:02:33.272Z,44.15
2019-02-25T09:03:33.305Z,44.05
2019-02-25T09:04:33.337Z,44.86
2019-02-25T09:05:33.372Z,43.80
2019-02-25T09:06:33.405Z,42.85
2019-02-25T09:07:33.436Z,42.41
2019-02-25T09:08:33.474Z,41.72
2019-02-25T09:09:33.505Z,42.40
2019-02-25T09:10:33.539Z,42.11
2019-02-25T09:11:33.574Z,42.08
2019-02-25T09:12:33.606Z,41.41
2019-02-25T09:13:33.642Z,41.61
2019-02-25T09:14:33.679Z,41.80
2019-02-25T09:15:33.712Z,42.20
2019-02-25T09:16:33.746Z,41.80
2019-02-25T09:17:33.782Z,41.63
2019-02-25T09:18:33.825Z,41.24
2019-02-25T09:19:33.849Z,41.22
2019-02-25T09:20:33.884Z,41.51
2019-02-25T09:21:33.927Z,42.37
2019-02-25T09:22:33.958Z,42.76
2019-02-25T09:23:33.990Z,42.40
2019-02-25T09:24:34.027Z,41.00
2019-02-25T09:25:34.062Z,40.44
2019-02-25T09:26:34.100Z,39.29
2019-02-25T09:27:34.135Z,39.35
2019-02-25T09:28:34.170Z,40.58
2019-02-25T09:29:34.207Z,40.61
2019-02-25T09:30:34.244Z,39.58
2019-02-25T09:31:34.280Z,38.87
2019-02-25T09:32:34.323Z,39.28
2019-02-25T09:33:34.353Z,39.39
2019-02-25T09:35:34.432Z,38.18
2019-02-25T09:36:34.461Z,37.80
2019-02-25T09:37:34.500Z,37.82
2019-02-25T09:38:34.538Z,37.05
2019-02-25T09:39:34.627Z,36.18
2019-02-25T09:40:34.612Z,35.34
2019-02-25T09:41:34.651Z,35.26
2019-02-25T09:42:34.688Z,34.95
2019-02-25T09:43:34.727Z,35.82
2019-02-25T09:44:34.764Z,35.43
2019-02-25T09:45:34.804Z,35.36
2019-02-25T09:46:34.841Z,35.14
2019-02-25T09:47:34.879Z,35.69
2019-02-25T09:48:34.918Z,36.46
2019-02-25T09:49:34.961Z,37.05
2019-02-25T09:50:34.997Z,38.37
2019-02-25T09:51:35.035Z,38.09
2019-02-25T09:52:35.075Z,37.99
2019-02-25T09:53:35.114Z,37.32
2019-02-25T09:54:35.155Z,37.26
2019-02-25T09:55:35.190Z,36.07
2019-02-25T09:56:37.281Z,36.70
2019-02-25T09:57:35.269Z,36.60
2019-02-25T09:58:35.310Z,36.24
2019-02-25T09:59:35.348Z,36.51
2019-02-25T10:00:35.393Z,36.15
2019-02-25T10:01:35.429Z,36.58
2019-02-25T10:02:35.468Z,37.30
2019-02-25T10:03:35.507Z,38.32
2019-02-25T10:04:35.549Z,38.14
2019-02-25T10:05:35.590Z,36.90
2019-02-25T10:06:35.628Z,36.97
2019-02-25T10:07:35.668Z,37.64
2019-02-25T10:08:35.710Z,38.28
2019-02-25T10:09:35.750Z,38.60
2019-02-25T10:10:35.793Z,38.59
2019-02-25T10:11:35.829Z,38.20
2019-02-25T10:12:35.869Z,37.43
2019-02-25T10:13:35.914Z,38.56
2019-02-25T10:14:35.952Z,39.06
2019-02-25T10:15:35.990Z,38.39
2019-02-25T10:16:36.032Z,37.95
2019-02-25T10:18:36.114Z,36.85
2019-02-25T10:19:36.153Z,36.18
2019-02-25T10:20:36.196Z,35.60
2019-02-25T10:21:36.664Z,35.70
2019-02-25T10:22:36.276Z,35.68
2019-02-25T10:23:36.318Z,35.25
2019-02-25T10:24:36.358Z,34.50
2019-02-25T10:25:36.400Z,33.76
2019-02-25T10:26:36.441Z,33.73
2019-02-25T10:27:37.314Z,32.51
2019-02-25T10:28:36.523Z,32.60
2019-02-25T10:29:36.565Z,32.51
2019-02-25T10:30:37.821Z,32.20
2019-02-25T10:31:38.063Z,32.87
2019-02-25T10:32:36.691Z,33.18
2019-02-25T10:33:36.733Z,32.94
2019-02-25T10:34:36.775Z,33.15
2019-02-25T10:35:36.818Z,33.25
2019-02-25T10:36:36.859Z,32.97
2019-02-25T10:37:38.662Z,33.26
2019-02-25T10:38:37.632Z,33.61
2019-02-25T10:39:36.988Z,34.40
2019-02-25T10:40:37.029Z,33.34
2019-02-25T10:41:37.072Z,32.95
2019-02-25T10:42:37.769Z,33.33
2019-02-25T10:43:37.157Z,34.66
2019-02-25T10:44:38.183Z,34.67
2019-02-25T10:45:38.976Z,34.98
2019-02-25T10:46:38.998Z,34.46
2019-02-25T10:47:37.329Z,35.81
2019-02-25T10:48:37.373Z,35.83
2019-02-25T10:49:37.416Z,35.54
2019-02-25T10:50:38.594Z,35.81
2019-02-25T10:51:40.634Z,35.16
2019-02-25T10:52:38.830Z,35.33
2019-02-25T10:53:37.588Z,35.04
2019-02-25T10:54:37.631Z,36.11
2019-02-25T10:55:37.674Z,35.50
2019-02-25T10:56:37.717Z,36.58
2019-02-25T10:57:37.760Z,35.75
2019-02-25T10:58:37.805Z,34.44
2019-02-25T10:59:39.534Z,33.18
2019-02-25T11:00:39.571Z,33.09
2019-02-25T11:01:39.246Z,32.56
2019-02-25T11:02:44.009Z,32.17
2019-02-25T11:03:38.019Z,31.62
2019-02-25T11:04:38.064Z,30.76
2019-02-25T11:05:38.107Z,30.57
2019-02-25T11:06:38.151Z,30.73
2019-02-25T11:07:39.811Z,30.75
2019-02-25T11:08:39.475Z,30.36
2019-02-25T11:09:39.878Z,30.73
2019-02-25T11:10:38.328Z,30.72
2019-02-25T11:11:38.372Z,31.22
2019-02-25T11:12:40.453Z,31.10
2019-02-25T11:13:38.463Z,31.40
2019-02-25T11:14:40.954Z,31.25
2019-02-25T11:15:40.204Z,30.75
2019-02-25T11:16:38.595Z,30.66
2019-02-25T11:17:38.641Z,30.73
2019-02-25T11:18:40.449Z,31.91
2019-02-25T11:19:38.729Z,31.81
2019-02-25T11:20:38.774Z,31.49
2019-02-25T11:21:39.956Z,31.71
2019-02-25T11:22:39.896Z,31.70
2019-02-25T11:23:38.908Z,32.54
2019-02-25T11:24:38.973Z,31.94
2019-02-25T11:25:39.000Z,32.26
2019-02-25T11:26:39.044Z,32.65
2019-02-25T11:27:40.003Z,32.07
2019-02-25T11:28:41.042Z,32.07
2019-02-25T11:29:40.494Z,32.87
2019-02-25T11:30:39.226Z,32.06
2019-02-25T11:32:39.314Z,33.57
2019-02-25T11:33:39.362Z,33.47
2019-02-25T11:34:39.891Z,34.10
2019-02-25T11:35:41.101Z,33.75
2019-02-25T11:36:39.499Z,32.76
2019-02-25T11:37:39.544Z,32.10
2019-02-25T11:38:39.592Z,31.81
2019-02-25T11:39:39.640Z,32.21
2019-02-25T11:40:39.680Z,33.14
2019-02-25T11:41:41.087Z,32.78
2019-02-25T11:42:39.773Z,31.47
2019-02-25T11:43:39.817Z,31.34
2019-02-25T11:44:39.869Z,31.26
2019-02-25T11:45:39.911Z,31.67
2019-02-25T11:46:39.956Z,32.68
2019-02-25T11:47:40.001Z,32.14
2019-02-25T11:48:40.069Z,31.18
2019-02-25T11:49:40.095Z,31.43
2019-02-25T11:50:40.141Z,31.56
2019-02-25T11:51:40.191Z,30.55
2019-02-25T11:52:40.231Z,29.15
2019-02-25T11:53:40.278Z,30.34
2019-02-25T11:54:40.331Z,30.07
2019-02-25T11:55:40.380Z,29.50
2019-02-25T11:56:40.416Z,29.83
2019-02-25T11:57:40.464Z,30.28
2019-02-25T11:58:40.513Z,31.18
2019-02-25T11:59:40.559Z,31.93
2019-02-25T12:00:40.605Z,31.37
2019-02-25T12:01:40.651Z,31.59
2019-02-25T12:02:40.697Z,30.51
2019-02-25T12:03:44.177Z,29.97
2019-02-25T12:04:44.628Z,29.32
2019-02-25T12:05:40.836Z,29.90
2019-02-25T12:06:41.107Z,29.68
2019-02-25T12:07:40.929Z,29.77
2019-02-25T12:08:41.306Z,29.52
2019-02-25T12:09:41.024Z,29.41
2019-02-25T12:10:41.069Z,28.93
2019-02-25T12:11:41.117Z,28.85
2019-02-25T12:12:41.163Z,28.66
2019-02-25T12:13:41.212Z,28.43
2019-02-25T12:14:41.258Z,27.00
2019-02-25T12:15:41.305Z,26.03
2019-02-25T12:16:41.351Z,25.63
2019-02-25T12:17:41.400Z,26.20
2019-02-25T12:18:41.448Z,26.59
2019-02-25T12:19:41.494Z,26.95
2019-02-25T12:20:41.542Z,28.25
2019-02-25T12:21:42.354Z,27.26
2019-02-25T12:22:41.638Z,26.89
2019-02-25T12:23:41.685Z,27.23
2019-02-25T12:24:41.734Z,27.44
2019-02-25T12:25:41.781Z,26.52
2019-02-25T12:26:41.830Z,25.57
2019-02-25T12:27:41.876Z,24.63
2019-02-25T12:28:41.926Z,24.71
2019-02-25T12:29:42.100Z,24.62
2019-02-25T12:30:42.025Z,24.79
2019-02-25T12:31:42.070Z,24.88
2019-02-25T12:32:42.118Z,24.80
2019-02-25T12:33:42.166Z,24.76
2019-02-25T12:34:42.213Z,25.54
2019-02-25T12:35:42.265Z,25.74
2019-02-25T12:36:42.308Z,25.01
2019-02-25T12:37:42.356Z,24.73
2019-02-25T12:38:42.405Z,24.81
2019-02-25T12:39:42.452Z,25.21
2019-02-25T12:40:42.497Z,25.51
2019-02-25T12:41:42.545Z,25.56
2019-02-25T12:42:42.594Z,25.67
2019-02-25T12:43:42.640Z,26.06
2019-02-25T12:44:42.688Z,26.57
2019-02-25T12:45:42.736Z,26.07
2019-02-25T12:46:42.787Z,25.56
2019-02-25T12:47:42.833Z,26.25
2019-02-25T12:48:42.879Z,25.71
2019-02-25T12:49:42.927Z,25.34
2019-02-25T12:50:42.977Z,23.99
2019-02-25T12:51:43.026Z,24.55
2019-02-25T12:52:43.101Z,24.40
2019-02-25T12:53:43.124Z,23.69
2019-02-25T12:54:43.178Z,25.11
2019-02-25T12:55:43.220Z,24.71